• Terra Properties Inc
  • Software Answer


Nearby METAR Reports


KEDC - Austin Exec, Texas, USA
Distance from station: SW 16mi, 25km
Updated: Tue, 26-Sep-2017 12:15pm CDT
Mostly Cloudy
Mostly Cloudy
 Wind from ESE
Wind: ESE 9 mph , 15 km/h
Temperature: 82°F , 28°C
Heat Index: 86°F , 30°C
Dew Point: 72°F , 22°C
Humidity: 70%
Barometer: 29.92 inHg , 1013.2 hPa
Clouds: Mostly Cloudy
Visibility: 10 miles , 16 km
Cloud details: Mostly Cloudy 2700 ft
Mostly Cloudy 3400 ft
2017/09/26 17:15 KEDC 261715Z AUTO 12008KT 10SM BKN027 BKN034 28/22 A2992 RMK AO2
KGTU - Georgetown, Texas, USA
Distance from station: WNW 17mi, 28km
Updated: Tue, 26-Sep-2017 12:56pm CDT
Overcast
Overcast
 Wind from SE
Wind: SE 8 mph , 13 km/h
Temperature: 82°F , 28°C
Heat Index: 86°F , 30°C
Dew Point: 70°F , 21°C
Humidity: 66%
Barometer: 29.93 inHg , 1013.5 hPa
Clouds: Overcast
Visibility: 10 miles , 16 km
Cloud details: Overcast 2300 ft
2017/09/26 17:56 KGTU 261756Z 14007KT 10SM OVC023 28/21 A2993 RMK AO2 SLP128 60003 T02780211 10283 20228 58006
 
KATT - Austin/Mabry, Texas, USA
Distance from station: SW 28mi, 45km
Updated: Tue, 26-Sep-2017 12:51pm CDT
Clear
Clear
 Wind from ESE
Wind: ESE 6 mph , 9 km/h
Temperature: 82°F , 28°C
Heat Index: 86°F , 30°C
Dew Point: 72°F , 22°C
Humidity: 70%
Barometer: 29.92 inHg , 1013.2 hPa
Clouds: Clear
Visibility: 10 miles , 16 km
2017/09/26 17:51 KATT 261751Z AUTO 11005KT 10SM CLR 28/22 A2992 RMK AO2 SLP116 T02780222 10283 20239 58005
KAUS - Austin, Texas, USA
Distance from station: SSW 32mi, 51km
Updated: Tue, 26-Sep-2017 11:53am CDT
Mostly Cloudy
Mostly Cloudy
 Wind from E
Wind: E 8 mph , 13 km/h
Temperature: 82°F , 28°C
Heat Index: 87°F , 31°C
Dew Point: 73°F , 23°C
Humidity: 74%
Barometer: 29.91 inHg , 1012.9 hPa
Clouds: Mostly Cloudy
Visibility: 10 miles , 16 km
Cloud details: Few Clouds 1700 ft
Partly Cloudy 3300 ft
Mostly Cloudy 20000 ft
2017/09/26 16:53 KAUS 261653Z 10007KT 10SM FEW017 SCT033 BKN200 28/23 A2991 RMK AO2 SLP116 T02830233
 
KRYW - Lago Vista, Texas, USA
Distance from station: W 33mi, 54km
Updated: Tue, 26-Sep-2017 12:55pm CDT
Light rain, Mostly cloudy
Light rain, Mostly cloudy
 Wind from ESE
Wind: ESE 3 mph , 6 km/h
Temperature: 81°F , 27°C
Heat Index: 86°F , 30°C
Dew Point: 73°F , 23°C
Humidity: 79%
Barometer: 29.95 inHg , 1014.2 hPa
Summary: Light Rain
Clouds: Mostly Cloudy
Visibility: 10 miles , 16 km
Cloud details: Mostly Cloudy 1700 ft
Mostly Cloudy 2300 ft
2017/09/26 17:55 KRYW 261755Z AUTO 12003KT 10SM -RA BKN017 BKN023 27/23 A2995 RMK AO2 T02660225 10269 20240
KILE - Killeen Muni, Texas, USA
Distance from station: NNW 37mi, 59km
Updated: Thu, 14-Sep-2017 9:21am CDT
NOT Current
Mostly Cloudy
Mostly Cloudy
 Wind from S
Wind: S 9 mph , 15 km/h
Temperature: 75°F , 24°C
Dew Point: 72°F , 22°C
Humidity: 89%
Barometer: 29.88 inHg , 1011.9 hPa
Clouds: Mostly Cloudy
Visibility: 10 miles , 16 km
Cloud details: Mostly Cloudy 800 ft
2017/09/14 14:21 KILE 141421Z AUTO 17008KT 10SM BKN008 24/22 A2988 RMK AO2
 
KTPL - Temple/Miller, Texas, USA
Distance from station: N 38mi, 61km
Updated: Tue, 26-Sep-2017 12:51pm CDT
Clear
Clear
 Wind from ESE
Wind: ESE 8 mph , 13 km/h
Temperature: 84°F , 29°C
Heat Index: 89°F , 32°C
Dew Point: 72°F , 22°C
Humidity: 66%
Barometer: 29.92 inHg , 1013.2 hPa
Clouds: Clear
Visibility: 10 miles , 16 km
2017/09/26 17:51 KTPL 261751Z AUTO 11007KT 10SM CLR 29/22 A2992 RMK AO2 SLP133 T02940217 10311 20228 58005
KGYB - Giddings-Lee, Texas, USA
Distance from station: SE 39mi, 62km
Updated: Tue, 26-Sep-2017 12:55pm CDT
Partly Cloudy
Partly Cloudy
 Wind from E
Wind: E 8 mph , 13 km/h
Temperature: 86°F , 30°C
Heat Index: 91°F , 33°C
Dew Point: 70°F , 21°C
Humidity: 59%
Barometer: 29.91 inHg , 1012.9 hPa
Clouds: Partly Cloudy
Visibility: 10 miles , 16 km
Cloud details: Partly Cloudy 3500 ft
2017/09/26 17:55 KGYB 261755Z AUTO 10007KT 10SM SCT035 30/21 A2991 RMK AO2 T02950212 10296 20211
 
KGRK - Gray/Ft Hood, Texas, USA
Distance from station: NW 42mi, 67km
Updated: Tue, 26-Sep-2017 12:58pm CDT
Mostly Cloudy
Mostly Cloudy
 Wind from SE
Wind: SE 8 mph , 13 km/h
Temperature: 84°F , 29°C
Heat Index: 87°F , 31°C
Dew Point: 68°F , 20°C
Humidity: 58%
Barometer: 29.91 inHg , 1012.9 hPa
Clouds: Mostly Cloudy
Visibility: 10 miles , 16 km
Cloud details: Few Clouds 3200 ft
Mostly Cloudy 22000 ft
2017/09/26 17:58 KGRK 261758Z 13007KT 10SM FEW032 BKN220 29/20 A2991 RMK AO2A CIG 047 RWY33 SLP117 T02910198 58007 $
KHLR - Ft Hood/Killeen, Texas, USA
Distance from station: NNW 42mi, 67km
Updated: Tue, 26-Sep-2017 12:58pm CDT
Mostly Cloudy
Mostly Cloudy
 Wind from SSE
Wind: SSE 7 mph , 11 km/h
Clouds: Mostly Cloudy
Visibility: 10 miles , 16 km
Cloud details: Few Clouds 3600 ft
Mostly Cloudy 23000 ft
2017/09/26 17:58 KHLR 261758Z AUTO 15006KT 10SM FEW036 BKN230 M A2989 RMK AO2 SLPNO 58007 $
 
KRWV - Caldwell, Texas, USA
Distance from station: E 43mi, 69km
Updated: Tue, 26-Sep-2017 12:55pm CDT
Partly Cloudy
Partly Cloudy
 Wind from E
Wind: E 5 mph , 7 km/h
Temperature: 84°F , 29°C
Heat Index: 89°F , 32°C
Dew Point: 72°F , 22°C
Humidity: 66%
Barometer: 29.92 inHg , 1013.2 hPa
Clouds: Partly Cloudy
Visibility: 10 miles , 16 km
Cloud details: Partly Cloudy 3000 ft
Partly Cloudy 3800 ft
2017/09/26 17:55 KRWV 261755Z AUTO 09004KT 10SM SCT030 SCT038 29/22 A2992 RMK AO2 T02900224 10293 20218
KBMQ - Burnet, Texas, USA
Distance from station: WNW 50mi, 80km
Updated: Tue, 26-Sep-2017 12:58pm CDT
Rain, Mist, Overcast
Rain, Mist, Overcast
 Wind from SSW
Wind: SSW 6 mph , 9 km/h, Gust: 17 mph , 28 km/h
Temperature: 72°F , 22°C
Dew Point: 70°F , 21°C
Humidity: 94%
Barometer: 29.97 inHg , 1014.9 hPa
Summary: Rain, Mist
Clouds: Overcast
Visibility: 1 mile , 2 km
Cloud details: Few Clouds 600 ft
Mostly Cloudy 1800 ft
Overcast 2800 ft
2017/09/26 17:58 KBMQ 261758Z AUTO 21005G15KT 1SM RA BR FEW006 BKN018 OVC028 22/21 A2997 RMK AO2 P0010 T02220211